Time;durP1;ratioP1;P1;durP2;ratioP2;P2;SDS_P1;SDS_P2;PMS_P1;PMS_P2;Temp;Humidity;BMP_temperature;BMP_pressure;BME280_temperature;BME280_humidity;BME280_pressure;Samples;Min_cycle;Max_cycle;Signal;HPM_P1;HPM_P2
2024/02/05 00:01:34;;;;;;;18.25;4.72;;;13.20;67.70;;;;;;4617341;30;20038;-84
2024/02/05 00:04:00;;;;;;;18.95;5.10;;;13.10;67.50;;;;;;4619250;30;20045;-83
2024/02/05 00:06:26;;;;;;;16.35;5.35;;;13.20;67.70;;;;;;4620845;30;20429;-84
2024/02/05 00:08:52;;;;;;;14.85;4.45;;;13.20;67.70;;;;;;4633583;30;20134;-83
2024/02/05 00:11:18;;;;;;;18.08;4.78;;;13.20;67.60;;;;;;4633938;30;20745;-85
2024/02/05 00:13:44;;;;;;;13.80;4.97;;;13.10;67.50;;;;;;4632330;30;20481;-84
2024/02/05 00:16:11;;;;;;;16.52;5.35;;;13.10;67.50;;;;;;4629762;30;20182;-84
2024/02/05 00:18:37;;;;;;;11.35;4.07;;;13.10;67.50;;;;;;4628575;30;20058;-83
2024/02/05 00:21:03;;;;;;;15.82;5.07;;;13.10;67.50;;;;;;4627796;30;20059;-85
2024/02/05 00:23:29;;;;;;;16.70;4.70;;;13.10;67.50;;;;;;4616449;30;20248;-85
2024/02/05 00:25:54;;;;;;;17.52;5.85;;;13.10;67.50;;;;;;4635708;30;20160;-83
2024/02/05 00:28:20;;;;;;;15.18;5.35;;;13.10;67.50;;;;;;4618592;30;20035;-84
2024/02/05 00:30:48;;;;;;;11.40;3.75;;;13.10;67.50;;;;;;4628655;30;20059;-82
2024/02/05 00:33:14;;;;;;;13.90;4.35;;;13.00;67.40;;;;;;4629992;30;20033;-82
2024/02/05 00:35:45;;;;;;;18.05;5.63;;;13.10;67.60;;;;;;4627923;30;20207;-83
2024/02/05 00:38:17;;;;;;;14.02;4.95;;;13.00;67.40;;;;;;4628233;30;20122;-83
2024/02/05 00:40:44;;;;;;;17.70;5.03;;;13.00;67.50;;;;;;4632789;30;20296;-84
2024/02/05 00:43:11;;;;;;;12.75;4.07;;;13.00;68.00;;;;;;4619694;30;20043;-83
2024/02/05 00:45:39;;;;;;;14.27;4.22;;;13.00;67.50;;;;;;4627241;30;20409;-83
2024/02/05 00:48:05;;;;;;;17.85;5.18;;;13.00;67.50;;;;;;4625260;30;20035;-83
2024/02/05 00:50:31;;;;;;;12.98;4.55;;;13.00;67.50;;;;;;4628277;30;20046;-85
2024/02/05 00:52:57;;;;;;;17.15;5.35;;;13.00;67.50;;;;;;4634282;30;20050;-85
2024/02/05 00:55:29;;;;;;;18.33;7.13;;;13.00;67.50;;;;;;4626276;30;20130;-82
2024/02/05 00:57:56;;;;;;;15.48;5.75;;;13.00;67.60;;;;;;4628204;30;20528;-83
2024/02/05 01:00:27;;;;;;;18.50;5.13;;;13.00;67.50;;;;;;4631081;30;20051;-83
2024/02/05 01:02:53;;;;;;;17.60;6.07;;;13.00;67.60;;;;;;4633027;30;20374;-84
2024/02/05 01:05:19;;;;;;;18.33;5.00;;;13.00;67.60;;;;;;4618842;30;20405;-84
2024/02/05 01:07:45;;;;;;;14.38;4.20;;;13.00;67.60;;;;;;4628705;30;20035;-84
2024/02/05 01:10:14;;;;;;;15.10;5.40;;;12.90;67.40;;;;;;4602493;30;20098;-83
2024/02/05 01:12:40;;;;;;;21.33;5.97;;;12.90;67.40;;;;;;4625914;30;20120;-83
2024/02/05 01:15:06;;;;;;;14.25;4.93;;;13.00;67.60;;;;;;4631591;30;20047;-83
2024/02/05 01:17:34;;;;;;;13.27;4.40;;;12.90;67.40;;;;;;4630903;30;20027;-84
2024/02/05 01:20:00;;;;;;;11.05;4.53;;;12.90;67.40;;;;;;4630384;30;20340;-83
2024/02/05 01:22:27;;;;;;;14.52;3.97;;;12.90;67.50;;;;;;4630881;30;20429;-84
2024/02/05 01:24:53;;;;;;;15.32;5.50;;;12.90;67.40;;;;;;4618039;30;20042;-84
2024/02/05 01:27:19;;;;;;;19.70;5.53;;;12.90;67.50;;;;;;4626862;30;20043;-84
2024/02/05 01:29:45;;;;;;;18.17;5.53;;;12.90;67.40;;;;;;4619010;30;20076;-84
2024/02/05 01:32:11;;;;;;;23.48;5.45;;;12.90;67.50;;;;;;4624978;30;20572;-84
2024/02/05 01:34:38;;;;;;;18.38;4.68;;;12.90;67.50;;;;;;4632377;30;20086;-83
2024/02/05 01:37:04;;;;;;;14.80;3.67;;;12.90;67.50;;;;;;4630955;30;20481;-85
2024/02/05 01:39:31;;;;;;;19.42;4.70;;;12.90;67.50;;;;;;4626819;30;20043;-81
2024/02/05 01:41:58;;;;;;;12.52;4.63;;;12.90;67.50;;;;;;4626590;30;20102;-82
2024/02/05 01:44:24;;;;;;;10.50;3.92;;;12.80;67.30;;;;;;4627789;30;20554;-82
2024/02/05 01:46:50;;;;;;;9.85;4.13;;;12.90;67.50;;;;;;4625237;30;20050;-84
2024/02/05 01:49:17;;;;;;;14.77;4.78;;;12.90;67.50;;;;;;4628993;30;20126;-80
2024/02/05 01:51:51;;;;;;;14.35;4.15;;;12.80;67.30;;;;;;4622412;30;20031;-81
2024/02/05 01:54:18;;;;;;;10.55;4.25;;;12.90;67.50;;;;;;4627098;30;20610;-83
2024/02/05 01:56:45;;;;;;;14.55;4.22;;;12.80;67.40;;;;;;4629457;30;20098;-83
2024/02/05 01:59:13;;;;;;;19.35;4.53;;;12.80;67.30;;;;;;4624281;30;20071;-83
2024/02/05 02:01:40;;;;;;;17.90;5.15;;;12.80;67.40;;;;;;4628348;30;20497;-83
2024/02/05 02:04:07;;;;;;;11.88;3.88;;;12.80;67.40;;;;;;4635285;30;20610;-81
2024/02/05 02:06:38;;;;;;;11.07;3.78;;;12.80;67.40;;;;;;4623897;30;20176;-84
2024/02/05 02:09:05;;;;;;;26.10;7.13;;;12.80;67.40;;;;;;4614544;30;20034;-83
2024/02/05 02:11:31;;;;;;;12.25;4.60;;;12.80;67.40;;;;;;4614065;30;20425;-83
2024/02/05 02:14:00;;;;;;;12.65;4.47;;;12.80;67.40;;;;;;4621579;30;20042;-82
2024/02/05 02:16:29;;;;;;;12.60;4.30;;;12.80;67.40;;;;;;4625589;30;20129;-84
2024/02/05 02:18:56;;;;;;;16.42;4.80;;;12.80;67.40;;;;;;4627359;30;20050;-84
2024/02/05 02:21:25;;;;;;;13.00;4.28;;;12.80;67.40;;;;;;4634656;30;20061;-85
2024/02/05 02:23:52;;;;;;;10.55;3.83;;;12.80;67.40;;;;;;4607311;30;20034;-84
2024/02/05 02:26:18;;;;;;;17.63;4.97;;;12.70;67.20;;;;;;4620718;30;20483;-83
2024/02/05 02:28:44;;;;;;;17.67;4.00;;;12.70;67.20;;;;;;4630829;30;20063;-85
2024/02/05 02:31:10;;;;;;;13.35;4.50;;;12.70;67.20;;;;;;4615325;30;20136;-84
2024/02/05 02:34:04;;;;;;;10.00;4.05;;;12.70;67.20;;;;;;4627384;30;20050;-83
2024/02/05 02:36:36;;;;;;;14.35;5.38;;;12.70;67.20;;;;;;4624153;30;20032;-82
2024/02/05 02:39:12;;;;;;;9.82;3.95;;;12.70;67.20;;;;;;4628873;30;20081;-80
2024/02/05 02:41:43;;;;;;;14.00;5.00;;;12.70;67.20;;;;;;4629427;30;20035;-82
2024/02/05 02:44:13;;;;;;;17.63;5.30;;;12.70;67.20;;;;;;4618307;30;20134;-82
2024/02/05 02:46:42;;;;;;;12.88;4.93;;;12.70;67.30;;;;;;4631151;30;20538;-82
2024/02/05 02:49:07;;;;;;;16.90;5.95;;;12.70;67.20;;;;;;4630579;30;20043;-83
2024/02/05 02:51:42;;;;;;;10.70;3.97;;;12.70;67.30;;;;;;4631389;30;20436;-81
2024/02/05 02:54:08;;;;;;;14.23;4.50;;;12.60;67.10;;;;;;4632631;30;20043;-83
2024/02/05 02:56:34;;;;;;;11.88;5.30;;;12.60;67.10;;;;;;4635431;30;20035;-85
2024/02/05 02:59:01;;;;;;;16.10;6.50;;;12.60;67.10;;;;;;4634341;30;20039;-83
2024/02/05 03:01:29;;;;;;;13.98;4.30;;;12.70;67.30;;;;;;4619276;30;20047;-84
2024/02/05 03:03:58;;;;;;;16.08;5.78;;;12.70;67.30;;;;;;4637987;30;20206;-85
2024/02/05 03:06:24;;;;;;;17.13;4.93;;;12.60;67.10;;;;;;4632010;30;20501;-85
2024/02/05 03:08:50;;;;;;;13.13;4.82;;;12.60;67.20;;;;;;4633021;30;20067;-87
2024/02/05 03:11:16;;;;;;;12.60;4.75;;;12.60;67.10;;;;;;4615060;30;20028;-84
2024/02/05 03:13:42;;;;;;;11.68;5.13;;;12.60;67.10;;;;;;4617997;30;20572;-85
2024/02/05 03:16:08;;;;;;;22.27;6.22;;;12.60;67.10;;;;;;4619082;30;20094;-85
2024/02/05 03:18:37;;;;;;;15.43;4.93;;;12.60;67.10;;;;;;4625730;30;20045;-86
2024/02/05 03:21:03;;;;;;;15.05;4.50;;;12.60;67.20;;;;;;4624467;30;20050;-86
2024/02/05 03:23:29;;;;;;;12.55;5.18;;;12.60;67.20;;;;;;4627430;30;20043;-87
2024/02/05 03:25:55;;;;;;;13.90;5.00;;;12.60;67.20;;;;;;4629335;30;20042;-86
2024/02/05 03:28:26;;;;;;;14.13;4.78;;;12.60;67.10;;;;;;4636920;30;20358;-86
2024/02/05 03:30:52;;;;;;;13.50;4.57;;;12.60;67.20;;;;;;4633850;30;20134;-85
2024/02/05 03:33:21;;;;;;;13.07;4.65;;;12.60;67.20;;;;;;4624578;30;20394;-87
2024/02/05 03:35:47;;;;;;;13.55;4.53;;;12.60;67.70;;;;;;4637910;30;20039;-85
2024/02/05 03:38:12;;;;;;;13.60;4.38;;;12.60;67.20;;;;;;4631430;30;20031;-85
2024/02/05 03:40:38;;;;;;;18.85;4.50;;;12.60;67.20;;;;;;4634437;30;20130;-85
2024/02/05 03:43:04;;;;;;;13.45;4.22;;;12.50;67.00;;;;;;4622241;30;20505;-83
2024/02/05 03:45:30;;;;;;;11.57;4.60;;;12.50;67.00;;;;;;4633873;30;20409;-84
2024/02/05 03:47:56;;;;;;;14.57;4.88;;;12.60;67.20;;;;;;4626713;30;20199;-84
2024/02/05 03:50:22;;;;;;;11.02;5.25;;;12.50;67.50;;;;;;4621392;30;20057;-84
2024/02/05 03:52:47;;;;;;;13.63;4.22;;;12.50;67.00;;;;;;4633251;30;20097;-84
2024/02/05 03:55:14;;;;;;;19.08;5.50;;;12.50;67.00;;;;;;4629938;30;20252;-84
2024/02/05 03:57:45;;;;;;;9.63;4.00;;;12.50;67.10;;;;;;4635664;30;20078;-85
2024/02/05 04:00:12;;;;;;;14.95;4.90;;;12.50;67.00;;;;;;4631358;30;20408;-85
2024/02/05 04:02:41;;;;;;;11.13;4.93;;;12.50;67.10;;;;;;4629362;30;20038;-85
2024/02/05 04:05:08;;;;;;;13.07;4.28;;;12.40;66.90;;;;;;4632574;30;20054;-84
2024/02/05 04:07:35;;;;;;;12.23;5.05;;;12.40;66.90;;;;;;4633726;30;20130;-83
2024/02/05 04:10:01;;;;;;;14.80;4.63;;;12.40;66.90;;;;;;4637772;30;20057;-83
2024/02/05 04:12:47;;;;;;;13.65;4.40;;;12.40;67.00;;;;;;4577852;31;20047;-84
2024/02/05 04:15:13;;;;;;;16.25;5.45;;;12.40;66.90;;;;;;4626278;30;20043;-84
2024/02/05 04:17:39;;;;;;;14.50;4.07;;;12.40;66.90;;;;;;4635487;30;20053;-82
2024/02/05 04:20:06;;;;;;;11.30;4.03;;;12.40;67.00;;;;;;4633994;30;20053;-84
2024/02/05 04:22:33;;;;;;;11.18;4.60;;;12.40;67.00;;;;;;4637235;30;20047;-84
2024/02/05 04:24:59;;;;;;;16.27;4.78;;;12.40;67.00;;;;;;4627945;30;20227;-83
2024/02/05 04:27:29;;;;;;;12.35;4.57;;;12.40;67.00;;;;;;4633660;30;20122;-84
2024/02/05 04:29:56;;;;;;;13.48;4.30;;;12.40;67.00;;;;;;4632569;30;20321;-84
2024/02/05 04:32:23;;;;;;;11.65;5.20;;;12.40;67.10;;;;;;4642885;30;20062;-84
2024/02/05 04:34:49;;;;;;;11.90;3.53;;;12.40;67.10;;;;;;4635577;30;20039;-85
2024/02/05 04:37:15;;;;;;;12.52;4.97;;;12.40;67.10;;;;;;4635086;30;20324;-84
2024/02/05 04:39:41;;;;;;;15.85;5.63;;;12.40;67.10;;;;;;4636457;30;20027;-83
2024/02/05 04:42:07;;;;;;;13.05;4.55;;;12.40;67.10;;;;;;4635245;30;20182;-84
2024/02/05 04:44:33;;;;;;;11.10;4.60;;;12.30;66.90;;;;;;4634375;30;20057;-85
2024/02/05 04:46:59;;;;;;;15.23;4.85;;;12.40;67.10;;;;;;4640040;30;20035;-83
2024/02/05 04:49:25;;;;;;;8.95;3.83;;;12.30;66.90;;;;;;4637605;30;20045;-84
2024/02/05 04:51:52;;;;;;;12.85;4.47;;;12.30;66.90;;;;;;4633955;30;20040;-84
2024/02/05 04:54:18;;;;;;;15.35;4.30;;;12.30;67.00;;;;;;4630051;30;20047;-84
2024/02/05 04:56:45;;;;;;;12.88;3.92;;;12.30;67.00;;;;;;4628320;30;20043;-84
2024/02/05 04:59:11;;;;;;;10.52;4.07;;;12.30;67.00;;;;;;4632626;30;20632;-84
2024/02/05 05:01:36;;;;;;;9.10;3.53;;;12.30;67.00;;;;;;4635463;30;20428;-84
2024/02/05 05:04:06;;;;;;;14.18;4.85;;;12.30;67.00;;;;;;4630396;30;20043;-85
2024/02/05 05:06:32;;;;;;;15.95;5.65;;;12.30;67.10;;;;;;4626461;30;20031;-85
2024/02/05 05:08:58;;;;;;;15.73;4.10;;;12.30;67.10;;;;;;4631816;30;20038;-83
2024/02/05 05:11:25;;;;;;;9.80;3.80;;;12.30;67.10;;;;;;4631741;30;20086;-83
2024/02/05 05:13:51;;;;;;;9.95;3.50;;;12.30;67.10;;;;;;4634792;30;20396;-82
2024/02/05 05:16:18;;;;;;;9.10;3.10;;;12.30;67.10;;;;;;4632552;30;20043;-84
2024/02/05 05:18:43;;;;;;;10.68;3.25;;;12.30;67.10;;;;;;4627263;30;20071;-84
2024/02/05 05:21:10;;;;;;;9.43;3.45;;;12.30;67.00;;;;;;4641360;30;20505;-82
2024/02/05 05:23:36;;;;;;;9.05;3.60;;;12.30;67.00;;;;;;4646329;30;20018;-83
2024/02/05 05:26:02;;;;;;;7.28;2.70;;;12.30;67.00;;;;;;4660182;30;20047;-88
2024/02/05 05:28:30;;;;;;;9.55;3.58;;;12.30;67.00;;;;;;4661233;30;20056;-85
2024/02/05 05:30:57;;;;;;;9.73;3.50;;;12.30;67.00;;;;;;4658154;30;20118;-85
2024/02/05 05:33:22;;;;;;;9.90;3.47;;;12.30;67.00;;;;;;4645688;30;20046;-86
2024/02/05 05:35:48;;;;;;;10.23;3.45;;;12.20;66.90;;;;;;4644503;30;20035;-86
2024/02/05 05:38:14;;;;;;;14.95;3.40;;;12.30;67.00;;;;;;4659453;30;20050;-86
2024/02/05 05:40:40;;;;;;;11.20;3.50;;;12.30;67.10;;;;;;4635636;30;20357;-85
2024/02/05 05:43:05;;;;;;;9.07;3.08;;;12.20;66.90;;;;;;4641596;30;20027;-83
2024/02/05 05:45:31;;;;;;;10.80;3.80;;;12.20;66.90;;;;;;4638967;30;20046;-83
2024/02/05 05:47:57;;;;;;;9.40;3.65;;;12.20;66.90;;;;;;4638270;30;20061;-85
2024/02/05 05:50:23;;;;;;;9.93;3.58;;;12.20;66.90;;;;;;4621336;30;20042;-83
2024/02/05 05:52:49;;;;;;;9.65;3.17;;;12.20;66.90;;;;;;4626290;30;20349;-84
2024/02/05 05:55:15;;;;;;;11.15;3.13;;;12.20;66.90;;;;;;4625473;30;20070;-85
2024/02/05 05:57:41;;;;;;;11.93;2.83;;;12.20;66.90;;;;;;4635421;30;20483;-85
2024/02/05 06:00:09;;;;;;;9.05;2.92;;;12.20;67.00;;;;;;4639969;30;21137;-85
2024/02/05 06:02:34;;;;;;;10.05;3.00;;;12.20;67.00;;;;;;4621424;30;20050;-85
2024/02/05 06:05:00;;;;;;;11.60;3.78;;;12.20;67.00;;;;;;4636775;30;20198;-85
2024/02/05 06:07:26;;;;;;;7.63;2.63;;;12.20;67.00;;;;;;4636505;30;20195;-82
2024/02/05 06:09:52;;;;;;;6.80;2.70;;;12.10;66.80;;;;;;4622313;30;20042;-84
2024/02/05 06:12:18;;;;;;;6.85;2.97;;;12.10;66.80;;;;;;4622086;30;20047;-87
2024/02/05 06:14:45;;;;;;;5.10;2.42;;;12.20;67.00;;;;;;4658272;30;20041;-85
2024/02/05 06:17:11;;;;;;;8.15;3.38;;;12.10;66.80;;;;;;4648272;30;20043;-83
2024/02/05 06:19:37;;;;;;;8.13;2.53;;;12.10;66.80;;;;;;4630069;30;20054;-83
2024/02/05 06:22:03;;;;;;;10.82;3.05;;;12.10;66.80;;;;;;4619783;30;20042;-85
2024/02/05 06:24:29;;;;;;;6.88;2.67;;;12.10;66.80;;;;;;4636610;30;20045;-85
2024/02/05 06:26:56;;;;;;;8.98;3.50;;;12.10;66.80;;;;;;4635104;30;20801;-82
2024/02/05 06:29:22;;;;;;;11.98;2.78;;;12.10;66.80;;;;;;4637723;30;20031;-87
2024/02/05 06:31:48;;;;;;;6.10;2.20;;;12.10;66.90;;;;;;4646517;30;20064;-86
2024/02/05 06:34:14;;;;;;;3.92;1.70;;;12.10;67.10;;;;;;4650894;30;20045;-84
2024/02/05 06:36:40;;;;;;;4.80;1.98;;;12.10;67.40;;;;;;4647688;30;20047;-80
2024/02/05 06:39:10;;;;;;;7.20;1.73;;;12.20;67.80;;;;;;4652129;30;20043;-87
2024/02/05 06:41:37;;;;;;;6.57;1.75;;;12.20;68.00;;;;;;4640306;30;20081;-86
2024/02/05 06:44:06;;;;;;;4.53;1.48;;;12.30;68.40;;;;;;4638734;30;20163;-86
2024/02/05 06:46:32;;;;;;;5.63;1.55;;;12.30;68.50;;;;;;4619334;30;20042;-91
2024/02/05 06:48:58;;;;;;;5.13;1.63;;;12.40;68.70;;;;;;4622110;30;20039;-89
2024/02/05 06:51:24;;;;;;;19.75;6.85;;;12.40;68.70;;;;;;4638348;30;20042;-85
2024/02/05 06:53:51;;;;;;;25.20;5.50;;;12.40;68.80;;;;;;4624155;30;20182;-91
2024/02/05 06:56:16;;;;;;;87.50;29.15;;;12.40;68.90;;;;;;4617040;30;20042;-86
2024/02/05 06:58:42;;;;;;;65.75;20.65;;;12.40;69.10;;;;;;4634925;30;20039;-87
2024/02/05 07:01:08;;;;;;;46.92;15.95;;;12.40;69.50;;;;;;4614912;30;20410;-84
2024/02/05 07:03:34;;;;;;;43.25;14.75;;;12.50;69.70;;;;;;4633439;30;20039;-85
2024/02/05 07:06:00;;;;;;;41.88;12.90;;;12.50;69.70;;;;;;4625627;30;20047;-86
2024/02/05 07:08:27;;;;;;;37.53;13.63;;;12.50;69.60;;;;;;4640676;30;20053;-85
2024/02/05 07:10:53;;;;;;;31.73;10.30;;;12.50;69.60;;;;;;4635845;30;20234;-79
2024/02/05 07:13:18;;;;;;;26.15;8.50;;;12.50;69.60;;;;;;4624203;30;20411;-80
2024/02/05 07:15:48;;;;;;;23.33;7.70;;;12.50;69.80;;;;;;4636002;30;20138;-80
2024/02/05 07:18:14;;;;;;;20.77;7.15;;;12.50;69.90;;;;;;4623881;30;20492;-83
2024/02/05 07:20:41;;;;;;;16.33;5.97;;;12.60;70.20;;;;;;4638420;30;20047;-82
2024/02/05 07:23:07;;;;;;;19.48;6.90;;;12.60;70.20;;;;;;4623174;30;20381;-81
2024/02/05 07:25:38;;;;;;;18.65;6.13;;;12.60;70.30;;;;;;4620376;30;20251;-81
2024/02/05 07:28:06;;;;;;;17.67;6.15;;;12.60;70.30;;;;;;4637570;30;20543;-80
2024/02/05 07:30:32;;;;;;;14.57;4.70;;;12.60;70.40;;;;;;4645488;30;20043;-80
2024/02/05 07:32:58;;;;;;;12.90;5.18;;;12.70;70.60;;;;;;4649132;30;20103;-81
2024/02/05 07:35:24;;;;;;;10.68;3.72;;;12.70;70.70;;;;;;4633019;30;20559;-80
2024/02/05 07:37:50;;;;;;;14.48;5.03;;;12.70;70.70;;;;;;4630070;30;20068;-81
2024/02/05 07:40:17;;;;;;;15.77;4.30;;;12.70;70.80;;;;;;4638835;30;20464;-81
2024/02/05 07:42:43;;;;;;;12.43;3.47;;;12.70;70.80;;;;;;4637208;30;20034;-81
2024/02/05 07:45:08;;;;;;;8.20;3.83;;;12.80;71.10;;;;;;4637211;30;20047;-80
2024/02/05 07:47:34;;;;;;;9.82;3.40;;;12.70;70.90;;;;;;4638117;30;20046;-81
2024/02/05 07:50:00;;;;;;;11.02;3.42;;;12.80;71.10;;;;;;4636571;30;20047;-81
2024/02/05 07:52:26;;;;;;;7.40;2.30;;;12.80;71.20;;;;;;4635279;30;20051;-82
2024/02/05 07:54:52;;;;;;;11.65;2.63;;;12.80;71.10;;;;;;4613819;30;20039;-81
2024/02/05 07:57:21;;;;;;;8.15;2.80;;;12.80;71.10;;;;;;4622445;30;20043;-82
2024/02/05 07:59:47;;;;;;;6.68;2.15;;;12.80;71.10;;;;;;4635850;30;20043;-81
2024/02/05 08:02:13;;;;;;;3.55;1.70;;;12.90;71.20;;;;;;4621231;30;20076;-81
2024/02/05 08:04:40;;;;;;;5.80;1.67;;;12.90;71.50;;;;;;4620688;30;20037;-82
2024/02/05 08:07:07;;;;;;;5.68;2.30;;;12.90;71.10;;;;;;4634106;30;20161;-80
2024/02/05 08:09:34;;;;;;;3.75;1.40;;;12.90;71.00;;;;;;4639001;30;20039;-82
2024/02/05 08:12:00;;;;;;;6.35;1.88;;;13.00;71.10;;;;;;4639628;30;20051;-81
2024/02/05 08:14:26;;;;;;;7.30;2.38;;;13.00;71.00;;;;;;4636866;30;20477;-80
2024/02/05 08:16:52;;;;;;;3.00;1.33;;;13.00;71.00;;;;;;4620664;30;20100;-82
2024/02/05 08:19:17;;;;;;;3.08;1.30;;;13.10;71.00;;;;;;4644077;30;20104;-80
2024/02/05 08:21:43;;;;;;;3.08;1.05;;;13.10;70.90;;;;;;4638163;30;20049;-81
2024/02/05 08:24:09;;;;;;;4.40;1.02;;;13.10;71.40;;;;;;4619479;30;20039;-80
2024/02/05 08:26:35;;;;;;;3.33;1.17;;;13.10;70.70;;;;;;4638274;30;20030;-82
2024/02/05 08:29:01;;;;;;;1.42;0.80;;;13.10;70.60;;;;;;4620625;30;20382;-81
2024/02/05 08:31:27;;;;;;;3.42;0.90;;;13.20;70.70;;;;;;4638636;30;20051;-81
2024/02/05 08:33:53;;;;;;;4.15;1.15;;;13.20;70.60;;;;;;4620013;30;20096;-80
2024/02/05 08:36:19;;;;;;;2.72;1.00;;;13.20;70.50;;;;;;4623781;30;20031;-82
2024/02/05 08:38:45;;;;;;;1.70;0.80;;;13.30;70.50;;;;;;4635088;30;20042;-81
2024/02/05 08:41:12;;;;;;;3.83;1.63;;;13.30;70.40;;;;;;4620918;30;20050;-80
2024/02/05 08:43:38;;;;;;;3.40;0.70;;;13.40;70.50;;;;;;4621011;30;20043;-81
2024/02/05 08:46:06;;;;;;;2.50;0.80;;;13.40;70.30;;;;;;4633797;30;20102;-82
2024/02/05 08:48:32;;;;;;;1.67;0.77;;;13.40;70.10;;;;;;4616597;30;20049;-81
2024/02/05 08:50:58;;;;;;;1.67;0.50;;;13.50;70.30;;;;;;4616060;30;20058;-81
2024/02/05 08:53:25;;;;;;;2.05;0.85;;;13.50;70.10;;;;;;4610915;30;20081;-82
2024/02/05 08:55:52;;;;;;;3.05;1.35;;;13.60;70.20;;;;;;4630863;30;20042;-82
2024/02/05 08:58:18;;;;;;;1.35;0.52;;;13.60;70.00;;;;;;4627571;30;20066;-82
2024/02/05 09:00:46;;;;;;;1.92;0.60;;;13.60;69.90;;;;;;4634254;30;20138;-81
2024/02/05 09:03:12;;;;;;;2.17;0.40;;;13.60;69.80;;;;;;4622154;30;20137;-81
2024/02/05 09:05:38;;;;;;;2.63;0.57;;;13.70;69.80;;;;;;4620451;30;20097;-81
2024/02/05 09:08:08;;;;;;;1.85;0.50;;;13.70;69.70;;;;;;4631074;30;20292;-81
2024/02/05 09:10:36;;;;;;;2.17;0.65;;;13.80;69.70;;;;;;4642325;30;20034;-81
2024/02/05 09:13:08;;;;;;;1.42;0.47;;;13.80;69.60;;;;;;4632285;30;20141;-80
2024/02/05 09:15:34;;;;;;;0.82;0.40;;;13.80;69.40;;;;;;4623669;30;20142;-81
2024/02/05 09:18:07;;;;;;;0.55;0.40;;;13.80;69.30;;;;;;4621301;30;20122;-80
2024/02/05 09:20:33;;;;;;;2.42;1.00;;;13.80;69.20;;;;;;4635352;30;20647;-81
2024/02/05 09:23:05;;;;;;;1.38;0.80;;;13.90;69.30;;;;;;4637845;30;20049;-80
2024/02/05 09:25:32;;;;;;;1.10;0.43;;;13.90;69.30;;;;;;4618522;30;20035;-82
2024/02/05 09:27:57;;;;;;;1.85;0.43;;;13.90;69.20;;;;;;4615850;30;20047;-80
2024/02/05 09:30:23;;;;;;;1.67;0.52;;;14.00;69.80;;;;;;4626253;30;20394;-80
2024/02/05 09:32:49;;;;;;;1.90;0.45;;;14.00;69.10;;;;;;4642386;30;20110;-79
2024/02/05 09:35:18;;;;;;;1.45;0.73;;;14.10;69.30;;;;;;4624219;30;21031;-81
2024/02/05 09:37:44;;;;;;;1.35;0.40;;;14.10;69.10;;;;;;4622166;30;20035;-82
2024/02/05 09:40:10;;;;;;;1.08;0.60;;;14.20;69.10;;;;;;4635486;30;20046;-81
2024/02/05 09:42:37;;;;;;;1.08;0.40;;;14.30;69.10;;;;;;4617078;30;20497;-79
2024/02/05 09:45:12;;;;;;;0.40;0.40;;;14.30;68.90;;;;;;4619762;30;20053;-82
2024/02/05 09:47:41;;;;;;;1.55;0.40;;;14.40;68.90;;;;;;4617966;30;20134;-83
2024/02/05 09:50:08;;;;;;;0.68;0.30;;;14.50;69.00;;;;;;4621737;30;20049;-82
2024/02/05 09:52:37;;;;;;;0.90;0.47;;;14.50;68.80;;;;;;4621642;30;20039;-82
2024/02/05 09:55:03;;;;;;;2.35;1.05;;;14.60;68.80;;;;;;4614919;30;20050;-82
2024/02/05 09:57:32;;;;;;;1.60;0.60;;;14.60;68.60;;;;;;4644621;30;20062;-83
2024/02/05 09:59:58;;;;;;;0.82;0.30;;;14.70;68.50;;;;;;4620163;30;20516;-81
2024/02/05 10:02:25;;;;;;;1.85;0.30;;;14.70;68.40;;;;;;4635174;30;20064;-81
2024/02/05 10:04:56;;;;;;;2.50;0.88;;;14.80;68.40;;;;;;4619386;30;20046;-81
2024/02/05 10:07:26;;;;;;;3.10;0.50;;;14.80;68.20;;;;;;4636040;30;20046;-80
2024/02/05 10:09:53;;;;;;;1.85;0.40;;;14.90;68.20;;;;;;4606548;30;20054;-79
2024/02/05 10:12:20;;;;;;;0.65;0.30;;;14.90;68.10;;;;;;4633187;30;20050;-80
2024/02/05 10:14:46;;;;;;;1.67;0.43;;;15.00;68.10;;;;;;4619783;30;20405;-81
2024/02/05 10:17:33;;;;;;;1.20;0.38;;;15.00;67.90;;;;;;4620522;30;20051;-84
2024/02/05 10:20:01;;;;;;;2.00;0.30;;;15.10;67.90;;;;;;4619946;30;20426;-84
2024/02/05 10:22:27;;;;;;;1.58;0.28;;;15.10;67.60;;;;;;4632367;30;20043;-82
2024/02/05 10:24:53;;;;;;;0.85;0.60;;;15.20;67.60;;;;;;4633973;30;20133;-82
2024/02/05 10:27:20;;;;;;;0.73;0.30;;;15.20;67.50;;;;;;4634183;30;20149;-82
2024/02/05 10:29:46;;;;;;;0.93;0.38;;;15.20;67.30;;;;;;4619917;30;20118;-83
2024/02/05 10:32:22;;;;;;;1.08;0.40;;;15.30;67.30;;;;;;4616849;30;20065;-85
2024/02/05 10:34:51;;;;;;;1.63;0.95;;;15.30;67.00;;;;;;4639528;30;20237;-84
2024/02/05 10:37:22;;;;;;;0.85;0.40;;;15.40;67.00;;;;;;4612522;30;20584;-84
2024/02/05 10:39:49;;;;;;;2.25;0.43;;;15.40;66.80;;;;;;4634123;30;20065;-84
2024/02/05 10:42:15;;;;;;;1.10;0.38;;;15.50;66.80;;;;;;4619033;30;20204;-83
2024/02/05 10:44:42;;;;;;;1.23;0.30;;;15.50;66.70;;;;;;4634629;30;20035;-84
2024/02/05 10:47:09;;;;;;;0.75;0.30;;;15.50;66.70;;;;;;4617666;30;20047;-82
2024/02/05 10:49:35;;;;;;;1.42;0.73;;;15.50;66.60;;;;;;4635025;30;20038;-82
2024/02/05 10:52:03;;;;;;;0.57;0.45;;;15.50;66.50;;;;;;4632978;30;20046;-82
2024/02/05 10:54:35;;;;;;;1.10;0.55;;;15.50;66.40;;;;;;4621204;30;20031;-82
2024/02/05 10:57:02;;;;;;;3.43;0.40;;;15.50;66.30;;;;;;4618260;30;20118;-82
2024/02/05 10:59:28;;;;;;;0.30;0.30;;;15.50;66.20;;;;;;4635205;30;20631;-82
2024/02/05 11:02:01;;;;;;;5.97;1.05;;;15.50;66.10;;;;;;4619278;30;20050;-83
2024/02/05 11:04:29;;;;;;;1.33;0.40;;;15.60;66.10;;;;;;4620156;30;20087;-81
2024/02/05 11:06:58;;;;;;;2.03;0.35;;;15.70;66.10;;;;;;4634545;30;20385;-83
2024/02/05 11:09:27;;;;;;;1.88;0.43;;;15.70;65.90;;;;;;4619392;30;20097;-81
2024/02/05 11:11:58;;;;;;;1.38;0.40;;;15.80;65.90;;;;;;4622929;30;20043;-83
2024/02/05 11:14:26;;;;;;;0.73;0.30;;;15.90;65.80;;;;;;4645590;30;20110;-83
2024/02/05 11:16:52;;;;;;;0.70;0.40;;;15.90;65.60;;;;;;4659564;30;20079;-83
2024/02/05 11:19:19;;;;;;;1.38;0.30;;;16.00;65.60;;;;;;4651573;30;20083;-84
2024/02/05 11:21:50;;;;;;;0.70;0.30;;;16.10;65.50;;;;;;4648961;30;20149;-82
2024/02/05 11:24:17;;;;;;;1.52;0.93;;;16.20;65.40;;;;;;4655895;30;20035;-84
2024/02/05 11:26:44;;;;;;;0.60;0.35;;;16.20;65.20;;;;;;4660399;30;20102;-81
2024/02/05 11:29:21;;;;;;;0.90;0.50;;;16.30;65.80;;;;;;4644450;30;20338;-82
2024/02/05 11:31:47;;;;;;;2.28;0.40;;;16.30;65.00;;;;;;4641070;30;20120;-83
2024/02/05 11:34:20;;;;;;;1.05;0.20;;;16.40;65.30;;;;;;4621507;30;20164;-82
2024/02/05 11:36:47;;;;;;;1.45;0.38;;;16.50;65.10;;;;;;4638002;30;20099;-83
2024/02/05 11:39:29;;;;;;;2.05;0.70;;;16.50;64.90;;;;;;4612058;30;20492;-82
2024/02/05 11:42:07;;;;;;;0.45;0.30;;;16.60;64.80;;;;;;4624653;30;20062;-82
2024/02/05 11:44:33;;;;;;;0.30;0.20;;;16.70;64.80;;;;;;4638589;30;20100;-82
2024/02/05 11:47:06;;;;;;;0.57;0.20;;;16.70;64.70;;;;;;4614881;30;20074;-81
2024/02/05 11:49:36;;;;;;;0.90;0.40;;;16.70;64.50;;;;;;4623624;30;20043;-81
2024/02/05 11:52:21;;;;;;;1.42;0.65;;;16.70;64.60;;;;;;4622732;30;20110;-80
2024/02/05 11:54:48;;;;;;;1.05;0.40;;;16.60;64.40;;;;;;4629784;30;20441;-82
2024/02/05 11:57:21;;;;;;;1.17;0.35;;;16.60;64.40;;;;;;4622217;30;20118;-83
2024/02/05 11:59:48;;;;;;;0.98;0.40;;;16.60;64.40;;;;;;4626708;30;20073;-81
2024/02/05 12:02:22;;;;;;;1.30;0.30;;;16.50;64.30;;;;;;4619551;30;20052;-84
2024/02/05 12:04:56;;;;;;;0.65;0.47;;;16.50;64.30;;;;;;4633266;30;20492;-83
2024/02/05 12:07:25;;;;;;;2.75;0.88;;;16.40;64.20;;;;;;4634082;30;20457;-83
2024/02/05 12:09:53;;;;;;;2.50;0.40;;;16.40;64.30;;;;;;4623721;30;20043;-80
2024/02/05 12:12:20;;;;;;;0.40;0.40;;;16.40;64.30;;;;;;4635509;30;20054;-79
2024/02/05 12:14:46;;;;;;;2.65;0.57;;;16.40;64.40;;;;;;4648205;30;20046;-80
2024/02/05 12:17:14;;;;;;;0.50;0.35;;;16.30;64.20;;;;;;4655765;30;20047;-81
2024/02/05 12:19:41;;;;;;;3.05;0.50;;;16.40;64.40;;;;;;4639321;30;20094;-81
2024/02/05 12:22:17;;;;;;;1.50;0.70;;;16.40;64.30;;;;;;4639612;30;20050;-81
2024/02/05 12:24:43;;;;;;;6.32;2.92;;;16.40;64.20;;;;;;4638604;30;20046;-82
2024/02/05 12:27:12;;;;;;;5.85;3.25;;;16.40;64.20;;;;;;4624584;30;20065;-83
2024/02/05 12:29:39;;;;;;;5.57;3.28;;;16.40;64.20;;;;;;4625091;30;20046;-82
2024/02/05 12:32:15;;;;;;;4.03;3.20;;;16.50;64.40;;;;;;4637412;30;20069;-81
2024/02/05 12:34:46;;;;;;;7.32;4.35;;;16.40;64.20;;;;;;4621694;30;20096;-80
2024/02/05 12:37:14;;;;;;;6.60;4.40;;;16.40;64.20;;;;;;4644254;30;20130;-82
2024/02/05 12:39:51;;;;;;;4.22;3.03;;;16.40;64.20;;;;;;4626105;30;20113;-81
2024/02/05 12:42:17;;;;;;;5.85;3.67;;;16.40;64.20;;;;;;4637042;30;20043;-81